VRMM/MLE METAR and TAF weather

Enter ICAO airport designator
Station Type Date Time Source
VRMM METAR 2020/07/08 21:00 UTC NOAA

VRMM 082100Z 23005KT 9999 FEW018 BKN280 29/26 Q1008 TEMPO FEW018CB


Station Type Date Time Source
VRMM Decoded METAR 2020/07/08 21:00 UTC NOAA

Male, Maldives (VRMM) 04-12N 073-32E 2M
Jul 08, 2020 - 05:00 PM EDT / 2020.07.08 2100 UTC
Wind: from the SW (230 degrees) at 6 MPH (5 KT):0
Visibility: greater than 7 mile(s):0
Sky conditions: mostly cloudy
Weather: Cumulonimbus clouds observed
Temperature: 84 F (29 C)
Dew Point: 78 F (26 C)
Relative Humidity: 83%
Pressure (altimeter): 29.77 in. Hg (1008 hPa)
ob: VRMM 082100Z 23005KT 9999 FEW018 BKN280 29/26 Q1008 TEMPO FEW018CB
cycle: 21

Station Type Date Time Source
VRMM TAF 2020/07/08 18:39 UTC NOAA

TAF VRMM 081700Z 0818/0924 24007KT 9999 FEW018TCU BKN120
TEMPO 0821/0903 5000 -TSRA SCT016 FEW017CB

Example: see airport list